Time;durP1;ratioP1;P1;durP2;ratioP2;P2;SDS_P1;SDS_P2;PMS_P1;PMS_P2;Temp;Humidity;BMP_temperature;BMP_pressure;BME280_temperature;BME280_humidity;BME280_pressure;Samples;Min_cycle;Max_cycle;Signal;HPM_P1;HPM_P2
2021/06/04 00:00:15;;;;;;;8.93;5.10;;;17.90;63.90;;;;;;5026129;28;20214;-68
2021/06/04 00:02:43;;;;;;;6.23;5.30;;;17.90;63.70;;;;;;5032153;28;20887;-67
2021/06/04 00:05:10;;;;;;;9.57;5.43;;;17.90;63.50;;;;;;5022542;28;20215;-67
2021/06/04 00:07:39;;;;;;;9.53;5.73;;;17.90;63.40;;;;;;5022833;28;20290;-67
2021/06/04 00:10:08;;;;;;;9.57;6.33;;;17.90;63.70;;;;;;5033531;28;20207;-67
2021/06/04 00:12:34;;;;;;;11.53;6.37;;;17.80;63.90;;;;;;5036051;28;20203;-68
2021/06/04 00:15:01;;;;;;;8.73;6.33;;;17.80;64.10;;;;;;5034658;28;20226;-67
2021/06/04 00:17:28;;;;;;;8.47;5.73;;;17.80;64.40;;;;;;5033956;28;20230;-67
2021/06/04 00:19:55;;;;;;;11.47;6.37;;;17.80;64.70;;;;;;5034088;28;20237;-67
2021/06/04 00:22:24;;;;;;;11.93;6.27;;;17.80;65.20;;;;;;5034043;28;20262;-68
2021/06/04 00:24:53;;;;;;;8.80;5.63;;;17.70;65.40;;;;;;5034242;28;20238;-68
2021/06/04 00:27:20;;;;;;;10.50;6.10;;;17.70;65.70;;;;;;5034620;28;20224;-67
2021/06/04 00:29:47;;;;;;;10.30;6.10;;;17.70;66.00;;;;;;5033975;28;20227;-68
2021/06/04 00:32:14;;;;;;;9.20;5.87;;;17.70;66.00;;;;;;5030795;28;20207;-68
2021/06/04 00:34:42;;;;;;;10.10;6.43;;;17.60;65.90;;;;;;5027734;28;20214;-68
2021/06/04 00:37:10;;;;;;;7.90;5.47;;;17.60;66.30;;;;;;5034467;28;20221;-67
2021/06/04 00:39:38;;;;;;;7.57;6.03;;;17.60;66.10;;;;;;5033874;28;20289;-68
2021/06/04 00:42:12;;;;;;;8.67;5.50;;;17.60;66.40;;;;;;5030494;28;20240;-68
2021/06/04 00:44:38;;;;;;;9.40;5.87;;;17.50;66.50;;;;;;5025920;28;20342;-66
2021/06/04 00:47:06;;;;;;;9.20;5.60;;;17.50;66.70;;;;;;5032925;28;20210;-67
2021/06/04 00:49:34;;;;;;;9.07;5.60;;;17.50;66.90;;;;;;5032605;28;20207;-67
2021/06/04 00:52:07;;;;;;;11.10;6.23;;;17.40;67.40;;;;;;5024972;28;20226;-67
2021/06/04 00:54:34;;;;;;;6.73;5.73;;;17.30;67.80;;;;;;5030304;28;20778;-67
2021/06/04 00:57:02;;;;;;;6.73;5.90;;;17.30;68.20;;;;;;5031257;28;20422;-68
2021/06/04 00:59:34;;;;;;;10.80;6.33;;;17.30;68.60;;;;;;5032465;28;20302;-67
2021/06/04 01:02:01;;;;;;;9.40;6.17;;;17.20;68.90;;;;;;5027420;28;20210;-68
2021/06/04 01:04:29;;;;;;;8.27;5.80;;;17.20;69.30;;;;;;5027159;28;20268;-67
2021/06/04 01:07:10;;;;;;;9.93;5.43;;;17.10;69.60;;;;;;5032395;28;20210;-68
2021/06/04 01:09:51;;;;;;;11.53;6.53;;;17.10;69.90;;;;;;5030143;28;20203;-68
2021/06/04 01:12:51;;;;;;;11.23;6.43;;;17.10;70.10;;;;;;5030281;28;20202;-68
2021/06/04 01:15:28;;;;;;;8.53;5.80;;;17.00;70.30;;;;;;5031034;28;20237;-67
2021/06/04 01:18:07;;;;;;;11.43;6.43;;;17.00;70.60;;;;;;5026378;28;20265;-67
2021/06/04 01:20:36;;;;;;;9.60;5.90;;;17.00;70.90;;;;;;5021268;28;20206;-68
2021/06/04 01:23:33;;;;;;;7.93;5.80;;;16.90;71.10;;;;;;5031651;28;20202;-68
2021/06/04 01:26:04;;;;;;;8.23;6.00;;;16.90;71.60;;;;;;5026603;28;20205;-67
2021/06/04 01:28:34;;;;;;;8.83;6.13;;;16.80;71.50;;;;;;5030830;28;20216;-68
2021/06/04 01:31:08;;;;;;;9.80;6.27;;;16.80;71.50;;;;;;5023759;28;20598;-68
2021/06/04 01:33:40;;;;;;;7.97;6.47;;;16.80;71.60;;;;;;5032387;28;20286;-68
2021/06/04 01:36:08;;;;;;;8.87;6.53;;;16.70;72.00;;;;;;5031622;28;20233;-67
2021/06/04 01:38:39;;;;;;;7.97;6.63;;;16.70;72.40;;;;;;5030486;28;20322;-68
2021/06/04 01:41:10;;;;;;;9.57;6.57;;;16.70;72.70;;;;;;5032318;28;20234;-67
2021/06/04 01:43:41;;;;;;;8.43;5.70;;;16.70;73.00;;;;;;5029726;28;20237;-67
2021/06/04 01:46:12;;;;;;;9.67;6.30;;;16.60;73.30;;;;;;5032434;28;20305;-68
2021/06/04 01:48:42;;;;;;;8.50;6.37;;;16.60;73.50;;;;;;5029144;28;20210;-66
2021/06/04 01:51:15;;;;;;;9.97;6.73;;;16.60;73.60;;;;;;5030871;28;20809;-68
2021/06/04 01:53:44;;;;;;;7.90;6.53;;;16.60;73.90;;;;;;5031358;28;20237;-67
2021/06/04 01:56:16;;;;;;;10.07;6.77;;;16.60;74.20;;;;;;5023793;28;20241;-67
2021/06/04 01:58:46;;;;;;;7.70;6.40;;;16.50;74.70;;;;;;5025109;28;20270;-68
2021/06/04 02:01:16;;;;;;;8.73;6.43;;;16.50;74.80;;;;;;5031524;28;20233;-67
2021/06/04 02:03:44;;;;;;;11.67;7.23;;;16.50;75.10;;;;;;5025315;28;20286;-67
2021/06/04 02:06:11;;;;;;;9.23;6.83;;;16.50;75.30;;;;;;5028649;28;20293;-67
2021/06/04 02:08:41;;;;;;;11.97;7.03;;;16.50;75.60;;;;;;5028760;28;20567;-67
2021/06/04 02:11:09;;;;;;;10.97;7.00;;;16.40;76.60;;;;;;5031957;28;20660;-67
2021/06/04 02:13:39;;;;;;;10.07;7.60;;;16.40;76.30;;;;;;5029433;28;20233;-68
2021/06/04 02:16:19;;;;;;;9.63;7.40;;;16.40;76.30;;;;;;5031314;28;20292;-68
2021/06/04 02:19:05;;;;;;;11.53;7.60;;;16.40;76.60;;;;;;5030501;28;20263;-67
2021/06/04 02:21:35;;;;;;;12.47;7.47;;;16.30;77.00;;;;;;5029597;28;20228;-67
2021/06/04 02:24:11;;;;;;;9.33;6.40;;;16.30;77.40;;;;;;5034603;28;20686;-68
2021/06/04 02:26:44;;;;;;;8.70;6.73;;;16.30;77.90;;;;;;5030664;28;20190;-68
2021/06/04 02:29:17;;;;;;;12.40;7.47;;;16.30;78.20;;;;;;5030681;28;20210;-68
2021/06/04 02:31:48;;;;;;;10.37;7.00;;;16.20;78.70;;;;;;5032131;28;20198;-67
2021/06/04 02:34:26;;;;;;;13.53;7.20;;;16.20;79.10;;;;;;5035625;28;20209;-68
2021/06/04 02:36:57;;;;;;;10.53;7.23;;;16.20;79.60;;;;;;5032697;28;20215;-67
2021/06/04 02:39:29;;;;;;;11.33;7.30;;;16.20;80.00;;;;;;5035541;28;20234;-67
2021/06/04 02:42:00;;;;;;;15.50;7.13;;;16.20;80.30;;;;;;5034101;28;20206;-67
2021/06/04 02:44:31;;;;;;;12.13;7.70;;;16.20;80.70;;;;;;5033393;28;20205;-67
2021/06/04 02:47:01;;;;;;;12.67;7.07;;;16.20;81.20;;;;;;5028326;28;20214;-67
2021/06/04 02:49:28;;;;;;;11.47;7.47;;;16.20;81.30;;;;;;5029690;28;20285;-67
2021/06/04 02:51:59;;;;;;;13.27;7.63;;;16.20;81.90;;;;;;5031896;28;20211;-67
2021/06/04 02:54:30;;;;;;;12.53;7.03;;;16.30;82.40;;;;;;5034822;28;20213;-67
2021/06/04 02:57:00;;;;;;;11.93;7.03;;;16.30;82.80;;;;;;5032163;28;20248;-67
2021/06/04 02:59:30;;;;;;;13.77;7.10;;;16.30;83.30;;;;;;5033097;28;20655;-68
2021/06/04 03:02:02;;;;;;;14.13;8.07;;;16.30;84.50;;;;;;5032151;28;20302;-68
2021/06/04 03:04:31;;;;;;;15.90;7.47;;;16.30;84.00;;;;;;5035311;28;20615;-67
2021/06/04 03:07:01;;;;;;;16.43;7.33;;;16.40;84.50;;;;;;5032942;28;20294;-68
2021/06/04 03:09:31;;;;;;;14.53;8.50;;;16.40;84.70;;;;;;5035487;28;20236;-67
2021/06/04 03:12:00;;;;;;;16.90;9.03;;;16.50;85.00;;;;;;5033961;28;20202;-67
2021/06/04 03:14:29;;;;;;;15.47;9.63;;;16.50;85.30;;;;;;5033040;28;20226;-68
2021/06/04 03:16:57;;;;;;;11.73;9.33;;;16.50;85.60;;;;;;5032999;28;20276;-66
2021/06/04 03:19:24;;;;;;;15.37;10.33;;;16.50;86.10;;;;;;5031169;28;20215;-67
2021/06/04 03:21:54;;;;;;;16.43;10.43;;;16.50;86.70;;;;;;5028019;28;20202;-68
2021/06/04 03:24:24;;;;;;;13.67;10.23;;;16.60;87.10;;;;;;5034614;28;20221;-67
2021/06/04 03:26:51;;;;;;;17.13;10.57;;;16.60;87.30;;;;;;5035378;28;20266;-67
2021/06/04 03:29:19;;;;;;;15.67;10.70;;;16.60;87.70;;;;;;5039595;28;20293;-67
2021/06/04 03:31:50;;;;;;;16.57;10.80;;;16.60;88.10;;;;;;5036553;28;20230;-67
2021/06/04 03:34:17;;;;;;;17.37;10.90;;;16.70;89.40;;;;;;5038094;28;20254;-67
2021/06/04 03:36:46;;;;;;;13.00;10.37;;;16.70;89.60;;;;;;5038718;28;20227;-67
2021/06/04 03:39:18;;;;;;;17.07;10.33;;;16.70;90.10;;;;;;5033872;28;20237;-67
2021/06/04 03:41:47;;;;;;;16.33;9.90;;;16.70;90.30;;;;;;5030365;28;20708;-67
2021/06/04 03:44:16;;;;;;;14.23;10.47;;;16.70;90.60;;;;;;5042243;28;20256;-68
2021/06/04 03:46:43;;;;;;;19.27;10.23;;;16.70;90.80;;;;;;5038187;28;20206;-68
2021/06/04 03:49:13;;;;;;;15.70;10.40;;;16.80;91.00;;;;;;5040730;28;20274;-68
2021/06/04 03:51:41;;;;;;;15.23;10.23;;;16.70;91.20;;;;;;5040773;28;20665;-67
2021/06/04 03:54:10;;;;;;;13.63;9.13;;;16.80;91.20;;;;;;5037755;28;20932;-67
2021/06/04 03:56:39;;;;;;;13.73;9.40;;;16.80;91.10;;;;;;5029102;28;20219;-67
2021/06/04 03:59:08;;;;;;;14.67;9.43;;;16.80;90.90;;;;;;5033798;28;20283;-68
2021/06/04 04:01:38;;;;;;;10.77;9.53;;;16.90;90.70;;;;;;5029514;28;20212;-67
2021/06/04 04:04:05;;;;;;;16.67;9.47;;;16.90;90.20;;;;;;5026493;28;20737;-67
2021/06/04 04:06:33;;;;;;;15.27;8.73;;;16.90;89.80;;;;;;5034156;28;20758;-67
2021/06/04 04:08:59;;;;;;;17.80;10.00;;;17.00;89.00;;;;;;5026566;28;20202;-67
2021/06/04 04:11:26;;;;;;;13.17;9.43;;;17.10;88.50;;;;;;5032557;28;20300;-67
2021/06/04 04:13:53;;;;;;;14.23;8.97;;;17.20;87.90;;;;;;5030729;28;20234;-69
2021/06/04 04:16:19;;;;;;;12.77;9.53;;;17.20;87.40;;;;;;5030632;28;20238;-67
2021/06/04 04:18:45;;;;;;;17.63;9.90;;;17.30;87.30;;;;;;5034705;28;20316;-66
2021/06/04 04:21:13;;;;;;;14.83;9.20;;;17.40;87.00;;;;;;5030552;28;20239;-67
2021/06/04 04:23:43;;;;;;;14.80;9.70;;;17.40;86.60;;;;;;5031636;28;20723;-68
2021/06/04 04:26:12;;;;;;;12.70;9.17;;;17.40;86.00;;;;;;5025926;28;20298;-67
2021/06/04 04:28:41;;;;;;;14.50;9.57;;;17.50;85.80;;;;;;5032791;28;20288;-68
2021/06/04 04:31:10;;;;;;;13.97;9.70;;;17.60;85.60;;;;;;5031345;28;20325;-67
2021/06/04 04:33:36;;;;;;;13.90;9.37;;;17.60;85.50;;;;;;5033587;28;20562;-67
2021/06/04 04:36:04;;;;;;;12.70;8.53;;;17.60;85.40;;;;;;5026022;28;20566;-67
2021/06/04 04:38:30;;;;;;;13.00;9.37;;;17.60;85.40;;;;;;5030904;28;20280;-67
2021/06/04 04:41:01;;;;;;;13.93;9.80;;;17.80;85.20;;;;;;5033387;28;20277;-68
2021/06/04 04:43:29;;;;;;;11.47;9.17;;;17.80;84.80;;;;;;5033510;28;20235;-68
2021/06/04 04:45:55;;;;;;;13.30;9.37;;;17.80;84.60;;;;;;5023885;28;20253;-66
2021/06/04 04:48:22;;;;;;;18.83;9.83;;;17.90;84.50;;;;;;5027646;28;20282;-67
2021/06/04 04:50:49;;;;;;;15.93;8.50;;;18.00;84.20;;;;;;5030548;28;20236;-68
2021/06/04 04:53:16;;;;;;;12.03;7.97;;;18.10;83.30;;;;;;5022628;28;20211;-68
2021/06/04 04:55:42;;;;;;;15.03;9.23;;;18.20;82.90;;;;;;5032960;28;20217;-68
2021/06/04 04:58:11;;;;;;;14.43;8.63;;;18.30;83.20;;;;;;5029020;28;20249;-68
2021/06/04 05:00:40;;;;;;;13.83;7.60;;;18.40;82.10;;;;;;5029310;28;20667;-71
2021/06/04 05:03:08;;;;;;;13.27;7.93;;;18.50;81.70;;;;;;5028338;28;20270;-70
2021/06/04 05:05:36;;;;;;;17.90;8.03;;;18.60;81.00;;;;;;5033074;28;20213;-68
2021/06/04 05:08:02;;;;;;;11.00;6.60;;;18.70;80.10;;;;;;5028022;28;20361;-69
2021/06/04 05:10:29;;;;;;;12.17;7.00;;;18.80;79.10;;;;;;5026698;28;20206;-70
2021/06/04 05:12:55;;;;;;;14.97;7.17;;;18.80;78.10;;;;;;5033099;28;20602;-68
2021/06/04 05:15:26;;;;;;;10.60;6.67;;;18.90;77.40;;;;;;5024380;28;20226;-68
2021/06/04 05:17:53;;;;;;;9.63;6.20;;;18.90;77.20;;;;;;5032014;28;20707;-68
2021/06/04 05:20:20;;;;;;;10.90;6.20;;;19.10;76.90;;;;;;5031676;28;20695;-67
2021/06/04 05:22:47;;;;;;;12.77;5.97;;;19.10;76.30;;;;;;5028697;28;20625;-69
2021/06/04 05:25:16;;;;;;;8.17;5.40;;;19.20;76.30;;;;;;5030782;28;20503;-69
2021/06/04 05:27:44;;;;;;;10.50;4.88;;;19.40;74.90;;;;;;5029843;28;20688;-69
2021/06/04 05:30:16;;;;;;;5.97;5.03;;;19.50;74.40;;;;;;5029824;28;20277;-69
2021/06/04 05:32:44;;;;;;;7.47;5.87;;;19.50;73.60;;;;;;5033252;28;20211;-69
2021/06/04 05:35:11;;;;;;;9.13;4.90;;;19.60;73.30;;;;;;5029342;28;20214;-65
2021/06/04 05:37:38;;;;;;;6.97;5.03;;;19.70;73.20;;;;;;5026684;28;20298;-68
2021/06/04 05:40:07;;;;;;;9.75;5.05;;;19.80;72.80;;;;;;5025953;28;20317;-67
2021/06/04 05:42:34;;;;;;;9.20;4.95;;;19.90;72.20;;;;;;5023082;28;20334;-67
2021/06/04 05:45:00;;;;;;;8.55;5.00;;;20.00;71.80;;;;;;5028898;28;20299;-67
2021/06/04 05:47:27;;;;;;;10.38;5.60;;;20.10;71.50;;;;;;5032632;28;20289;-65
2021/06/04 05:49:55;;;;;;;7.00;5.10;;;20.20;70.90;;;;;;5028805;28;20294;-69
2021/06/04 05:52:21;;;;;;;10.48;4.65;;;20.20;70.80;;;;;;5029308;28;20217;-67
2021/06/04 05:54:48;;;;;;;7.40;4.30;;;20.30;70.40;;;;;;5034078;28;20202;-67
2021/06/04 05:57:17;;;;;;;6.80;4.75;;;20.40;69.20;;;;;;5028793;28;20227;-66
2021/06/04 05:59:44;;;;;;;11.65;4.50;;;20.50;69.20;;;;;;5028197;28;20256;-69
2021/06/04 06:02:11;;;;;;;6.65;4.28;;;20.60;68.70;;;;;;5026879;28;20345;-67
2021/06/04 06:04:42;;;;;;;8.02;4.25;;;20.70;67.70;;;;;;5022780;28;20203;-67
2021/06/04 06:07:09;;;;;;;9.18;4.30;;;20.60;66.70;;;;;;5031806;28;20631;-68
2021/06/04 06:09:36;;;;;;;8.98;3.83;;;20.70;66.20;;;;;;5031728;28;20777;-66
2021/06/04 06:12:03;;;;;;;5.40;4.30;;;20.70;65.90;;;;;;5031048;28;20707;-67
2021/06/04 06:14:31;;;;;;;4.95;4.22;;;20.70;65.80;;;;;;5032226;28;20223;-67
2021/06/04 06:16:57;;;;;;;9.43;4.00;;;20.80;65.70;;;;;;5026303;28;20688;-67
2021/06/04 06:19:23;;;;;;;8.80;4.93;;;20.90;65.80;;;;;;5030588;28;20306;-65
2021/06/04 06:21:52;;;;;;;7.50;4.10;;;21.00;65.90;;;;;;5031810;28;20281;-66
2021/06/04 06:24:20;;;;;;;5.80;3.80;;;21.10;65.30;;;;;;5030001;28;20222;-69
2021/06/04 06:26:47;;;;;;;5.43;3.78;;;21.20;65.30;;;;;;5029286;28;20252;-68
2021/06/04 06:29:16;;;;;;;6.78;4.03;;;21.30;64.90;;;;;;5028535;28;20222;-66
2021/06/04 06:31:45;;;;;;;9.57;3.65;;;21.40;64.00;;;;;;5030379;28;20206;-67
2021/06/04 06:34:12;;;;;;;8.02;3.92;;;21.50;63.40;;;;;;5026586;28;20210;-65
2021/06/04 06:36:41;;;;;;;4.00;3.38;;;21.60;62.90;;;;;;5023453;28;20322;-66
2021/06/04 06:39:11;;;;;;;7.97;3.20;;;21.70;62.10;;;;;;5028977;28;20211;-66
2021/06/04 06:41:41;;;;;;;3.72;3.00;;;21.70;61.40;;;;;;5033563;28;20222;-66
2021/06/04 06:44:09;;;;;;;5.50;3.10;;;21.80;60.90;;;;;;5027780;28;20202;-65
2021/06/04 06:46:36;;;;;;;3.22;2.65;;;21.80;60.10;;;;;;5022285;28;20203;-66
2021/06/04 06:49:04;;;;;;;4.63;2.53;;;21.90;60.20;;;;;;5027390;28;20568;-67
2021/06/04 06:51:33;;;;;;;3.70;2.28;;;21.90;59.50;;;;;;5028876;28;20256;-67
2021/06/04 06:53:59;;;;;;;2.42;2.22;;;21.90;58.80;;;;;;5029424;28;20746;-67
2021/06/04 06:56:26;;;;;;;3.70;2.40;;;22.00;57.80;;;;;;5029658;28;20638;-68
2021/06/04 06:58:54;;;;;;;3.53;2.40;;;22.10;57.10;;;;;;5027823;28;20850;-67
2021/06/04 07:01:21;;;;;;;8.15;2.95;;;22.10;57.10;;;;;;5026204;28;20716;-66
2021/06/04 07:03:47;;;;;;;6.30;3.00;;;22.30;57.30;;;;;;5023596;28;20289;-67
2021/06/04 07:06:17;;;;;;;5.63;2.78;;;22.30;57.10;;;;;;5028129;28;20221;-68
2021/06/04 07:08:44;;;;;;;5.18;2.63;;;22.50;57.40;;;;;;5031321;28;20213;-68
2021/06/04 07:11:11;;;;;;;5.93;2.67;;;22.60;56.90;;;;;;5028864;28;20203;-68
2021/06/04 07:13:37;;;;;;;5.53;2.72;;;22.70;56.40;;;;;;5033244;28;20329;-67
2021/06/04 07:16:07;;;;;;;3.58;2.67;;;22.80;56.20;;;;;;5030979;28;20268;-67
2021/06/04 07:18:34;;;;;;;4.10;2.58;;;22.90;56.90;;;;;;5033338;28;20225;-67
2021/06/04 07:21:03;;;;;;;3.30;2.38;;;23.00;55.80;;;;;;5032215;28;20249;-66
2021/06/04 07:23:30;;;;;;;3.90;2.78;;;23.10;55.30;;;;;;5034659;28;20211;-69
2021/06/04 07:25:58;;;;;;;5.38;2.65;;;23.10;55.10;;;;;;5024678;28;20214;-67
2021/06/04 07:28:27;;;;;;;6.50;2.72;;;23.20;55.00;;;;;;5031581;28;20609;-66
2021/06/04 07:30:56;;;;;;;6.00;2.47;;;23.30;54.80;;;;;;5029750;28;20276;-65
2021/06/04 07:33:27;;;;;;;4.20;2.70;;;23.40;54.70;;;;;;5029536;28;20560;-68
2021/06/04 07:35:55;;;;;;;5.10;2.85;;;23.50;54.30;;;;;;5034635;28;20675;-68
2021/06/04 07:38:22;;;;;;;8.85;3.08;;;23.60;54.20;;;;;;5034004;28;20660;-67
2021/06/04 07:40:49;;;;;;;5.05;2.70;;;23.70;54.50;;;;;;5033015;28;20225;-66
2021/06/04 07:43:21;;;;;;;4.53;2.50;;;23.80;54.10;;;;;;5026411;28;20203;-68
2021/06/04 07:45:48;;;;;;;9.18;2.90;;;24.00;53.60;;;;;;5028611;28;20210;-68
2021/06/04 07:48:18;;;;;;;5.45;2.65;;;24.00;53.00;;;;;;5031257;28;20252;-66
2021/06/04 07:50:48;;;;;;;3.42;2.50;;;24.10;52.70;;;;;;5029015;28;20248;-67
2021/06/04 07:53:16;;;;;;;4.82;2.10;;;24.20;52.30;;;;;;5026686;28;20313;-67
2021/06/04 07:55:44;;;;;;;8.10;2.95;;;24.30;52.30;;;;;;5032220;28;20209;-67
2021/06/04 07:58:11;;;;;;;5.15;1.90;;;24.30;52.00;;;;;;5032377;28;20234;-68
2021/06/04 08:00:38;;;;;;;3.50;2.30;;;24.50;51.60;;;;;;5030860;28;20301;-67
2021/06/04 08:03:06;;;;;;;6.00;2.47;;;24.50;51.40;;;;;;5035435;28;20724;-68
2021/06/04 08:05:34;;;;;;;3.88;2.28;;;24.60;51.10;;;;;;5030319;28;20199;-67
2021/06/04 08:08:03;;;;;;;3.30;2.22;;;24.70;50.80;;;;;;5035844;28;20559;-69
2021/06/04 08:10:31;;;;;;;6.72;2.20;;;24.70;50.50;;;;;;5034644;28;20203;-67
2021/06/04 08:12:58;;;;;;;4.18;2.40;;;24.80;50.50;;;;;;5035068;28;20244;-67
2021/06/04 08:15:28;;;;;;;3.08;2.20;;;24.90;50.50;;;;;;5032874;28;20253;-67
2021/06/04 08:17:55;;;;;;;3.42;2.17;;;25.00;50.00;;;;;;5041025;28;20222;-68
2021/06/04 08:20:26;;;;;;;4.47;2.40;;;25.10;49.80;;;;;;5035919;28;20616;-66
2021/06/04 08:22:54;;;;;;;4.00;1.83;;;25.30;49.50;;;;;;5028465;28;20612;-69
2021/06/04 08:25:26;;;;;;;2.85;1.90;;;25.30;49.00;;;;;;5027440;28;20245;-67
2021/06/04 08:27:52;;;;;;;5.28;2.40;;;25.40;48.70;;;;;;5039343;28;20205;-68
2021/06/04 08:30:19;;;;;;;6.75;2.20;;;25.50;48.40;;;;;;5021414;28;20242;-68
2021/06/04 08:32:45;;;;;;;5.07;2.22;;;25.60;48.50;;;;;;5027733;28;20451;-68
2021/06/04 08:35:13;;;;;;;2.90;2.38;;;25.70;48.60;;;;;;5025298;28;20203;-68
2021/06/04 08:37:40;;;;;;;3.17;2.17;;;25.80;48.70;;;;;;5031623;28;20270;-68
2021/06/04 08:40:09;;;;;;;5.30;2.17;;;26.00;48.40;;;;;;5029885;28;20636;-67
2021/06/04 08:42:52;;;;;;;3.45;1.85;;;26.20;47.80;;;;;;5018202;28;20207;-67
2021/06/04 08:45:32;;;;;;;2.70;1.95;;;26.30;47.20;;;;;;5027308;28;20202;-68
2021/06/04 08:48:07;;;;;;;2.38;1.88;;;26.40;46.30;;;;;;5031671;28;20199;-68
2021/06/04 08:50:43;;;;;;;2.47;2.15;;;26.40;46.10;;;;;;5029168;28;20252;-69
2021/06/04 08:53:25;;;;;;;4.68;2.47;;;26.50;45.90;;;;;;5028687;28;20202;-67
2021/06/04 08:56:00;;;;;;;3.10;2.00;;;26.60;45.10;;;;;;5033020;28;20204;-66
2021/06/04 08:58:50;;;;;;;3.90;2.13;;;26.70;44.60;;;;;;5027598;28;20213;-67
2021/06/04 09:01:20;;;;;;;2.00;1.80;;;27.00;44.30;;;;;;5028808;28;20211;-69
2021/06/04 09:03:52;;;;;;;5.75;1.85;;;27.10;43.70;;;;;;5028628;28;20336;-67
2021/06/04 09:06:27;;;;;;;4.32;1.80;;;27.20;43.50;;;;;;5028622;28;20287;-67
2021/06/04 09:08:54;;;;;;;3.65;2.00;;;27.40;42.70;;;;;;5028315;28;20209;-67
2021/06/04 09:11:27;;;;;;;3.85;2.25;;;27.40;42.40;;;;;;5024928;28;20213;-66
2021/06/04 09:13:56;;;;;;;4.32;2.15;;;27.40;42.20;;;;;;5024254;28;20235;-67
2021/06/04 09:16:35;;;;;;;3.25;2.28;;;27.40;42.50;;;;;;5028824;28;20310;-66
2021/06/04 09:19:08;;;;;;;5.18;2.28;;;27.30;41.70;;;;;;5022342;28;20328;-68
2021/06/04 09:21:38;;;;;;;4.30;1.95;;;27.30;41.90;;;;;;5029011;28;20199;-67
2021/06/04 09:24:08;;;;;;;3.45;1.90;;;27.40;42.50;;;;;;5039305;28;20300;-69
2021/06/04 09:26:35;;;;;;;2.85;2.03;;;27.50;41.80;;;;;;5041321;28;20206;-67
2021/06/04 09:29:16;;;;;;;3.65;1.83;;;27.50;40.90;;;;;;5034116;28;20214;-71
2021/06/04 09:31:45;;;;;;;3.15;1.77;;;27.60;40.80;;;;;;5026467;28;20261;-68
2021/06/04 09:34:15;;;;;;;4.55;2.30;;;27.80;41.00;;;;;;5032704;28;20214;-67
2021/06/04 09:36:45;;;;;;;2.75;1.60;;;28.00;41.00;;;;;;5026820;28;20203;-67
2021/06/04 09:39:22;;;;;;;3.55;1.95;;;28.20;40.60;;;;;;5030659;28;20202;-68
2021/06/04 09:41:50;;;;;;;4.03;2.53;;;28.40;40.10;;;;;;5029275;28;20206;-67
2021/06/04 09:44:27;;;;;;;5.05;2.30;;;28.30;40.10;;;;;;5032945;28;20297;-66
2021/06/04 09:47:02;;;;;;;7.43;2.50;;;28.30;40.70;;;;;;5029607;28;20269;-65
2021/06/04 09:49:48;;;;;;;2.58;2.08;;;28.50;41.50;;;;;;5026670;28;20589;-67
2021/06/04 09:52:31;;;;;;;5.80;2.65;;;28.60;40.40;;;;;;5028893;28;20333;-67
2021/06/04 09:55:14;;;;;;;4.07;2.15;;;28.70;39.90;;;;;;5021407;28;20209;-63
2021/06/04 09:57:58;;;;;;;3.13;2.03;;;28.80;39.60;;;;;;5031258;28;20210;-66
2021/06/04 10:00:30;;;;;;;4.20;2.08;;;28.60;39.50;;;;;;5028809;28;20298;-67
2021/06/04 10:03:28;;;;;;;3.15;2.10;;;28.30;39.00;;;;;;5032212;28;20265;-67
2021/06/04 10:06:27;;;;;;;4.68;2.00;;;28.00;39.30;;;;;;5030148;28;20273;-65
2021/06/04 10:08:56;;;;;;;4.35;2.28;;;27.80;39.50;;;;;;5025279;28;20273;-67
2021/06/04 10:11:24;;;;;;;4.60;2.30;;;27.60;39.70;;;;;;5035209;28;20211;-66
2021/06/04 10:13:55;;;;;;;4.20;2.13;;;27.50;40.80;;;;;;5033933;28;20237;-64
2021/06/04 10:19:46;;;;;;;4.60;2.03;;;27.40;40.90;;;;;;4989657;28;20208;-65
2021/06/04 10:22:28;;;;;;;4.15;1.73;;;27.30;41.00;;;;;;4988684;28;20259;-66
2021/06/04 10:25:16;;;;;;;5.43;2.50;;;27.20;41.10;;;;;;5009919;28;20604;-66
2021/06/04 10:27:45;;;;;;;5.25;2.30;;;27.20;41.40;;;;;;5023457;28;20298;-66
2021/06/04 10:30:14;;;;;;;4.15;2.50;;;27.20;42.30;;;;;;5032815;28;20238;-66
2021/06/04 10:32:50;;;;;;;4.95;1.73;;;27.20;41.50;;;;;;5035434;28;20727;-66
2021/06/04 10:35:22;;;;;;;4.20;2.58;;;27.20;41.20;;;;;;5030524;28;20257;-66
2021/06/04 10:37:53;;;;;;;1.95;1.85;;;27.10;40.70;;;;;;5035468;28;20302;-65
2021/06/04 10:40:25;;;;;;;3.40;2.05;;;27.10;41.20;;;;;;5045158;28;20579;-66
2021/06/04 10:43:34;;;;;;;1.92;1.52;;;26.90;40.40;;;;;;5037131;28;20568;-66
2021/06/04 10:46:09;;;;;;;2.20;2.00;;;26.70;40.80;;;;;;5029979;28;20210;-66
2021/06/04 10:49:12;;;;;;;2.40;2.03;;;26.50;41.30;;;;;;5041134;28;20201;-63
2021/06/04 10:51:46;;;;;;;3.00;1.90;;;26.50;41.90;;;;;;5035164;28;20260;-66
2021/06/04 10:54:20;;;;;;;3.67;2.08;;;26.50;42.20;;;;;;5035669;28;20249;-66
2021/06/04 10:56:55;;;;;;;2.08;1.90;;;26.40;41.80;;;;;;5035683;28;20206;-66
2021/06/04 10:59:33;;;;;;;4.85;1.90;;;26.30;41.50;;;;;;5040934;28;20293;-65
2021/06/04 11:02:06;;;;;;;3.55;1.98;;;26.30;41.10;;;;;;5035532;28;20236;-65
2021/06/04 11:04:44;;;;;;;6.38;2.20;;;26.40;42.40;;;;;;5036620;28;20285;-66
2021/06/04 11:07:16;;;;;;;3.40;2.30;;;26.70;44.60;;;;;;5024669;28;20219;-67
2021/06/04 11:09:55;;;;;;;2.22;1.83;;;27.10;43.50;;;;;;5033890;28;20330;-67
2021/06/04 11:12:44;;;;;;;4.95;2.10;;;27.50;42.30;;;;;;5035434;28;20643;-66
2021/06/04 11:15:17;;;;;;;3.60;1.80;;;27.60;40.50;;;;;;5036585;28;20237;-66
2021/06/04 11:17:47;;;;;;;2.97;1.92;;;27.60;40.20;;;;;;5036046;28;20298;-68
2021/06/04 11:20:19;;;;;;;3.42;2.22;;;27.50;40.20;;;;;;5034716;28;20206;-66
2021/06/04 11:22:56;;;;;;;3.58;1.98;;;27.40;40.10;;;;;;5029368;28;20214;-67
2021/06/04 11:25:30;;;;;;;2.47;2.28;;;27.20;40.30;;;;;;5027697;28;20195;-66
2021/06/04 11:28:09;;;;;;;3.97;2.20;;;27.10;41.30;;;;;;5028916;28;20271;-68
2021/06/04 11:30:37;;;;;;;3.97;2.00;;;27.10;41.50;;;;;;5032098;28;20290;-66
2021/06/04 11:33:07;;;;;;;3.13;2.00;;;27.10;41.30;;;;;;5036621;28;20306;-66
2021/06/04 11:35:40;;;;;;;3.63;2.10;;;27.10;41.30;;;;;;5031595;28;20297;-66
2021/06/04 11:38:13;;;;;;;2.55;1.92;;;27.10;41.30;;;;;;5035524;28;20219;-67
2021/06/04 11:40:43;;;;;;;1.80;1.70;;;27.20;41.50;;;;;;5029675;28;20286;-64
2021/06/04 11:43:21;;;;;;;3.05;1.88;;;27.30;41.40;;;;;;5033933;28;20588;-63
2021/06/04 11:45:48;;;;;;;2.80;2.15;;;27.60;41.00;;;;;;5035205;28;20621;-64
2021/06/04 11:48:35;;;;;;;5.22;2.28;;;27.80;40.40;;;;;;5034771;28;20217;-65
2021/06/04 11:51:29;;;;;;;5.40;2.40;;;28.20;40.40;;;;;;5034087;28;20280;-64
2021/06/04 11:53:56;;;;;;;8.55;2.10;;;28.50;39.70;;;;;;5033097;28;20289;-66
2021/06/04 11:56:45;;;;;;;2.33;2.13;;;28.60;39.50;;;;;;5033823;28;20648;-65
2021/06/04 11:59:33;;;;;;;7.50;2.22;;;28.80;39.20;;;;;;5034066;28;20222;-66
2021/06/04 12:02:04;;;;;;;2.35;2.05;;;28.90;38.70;;;;;;5034360;28;20221;-68
2021/06/04 12:04:31;;;;;;;2.20;2.00;;;28.90;38.30;;;;;;5034621;28;20252;-64
2021/06/04 12:07:05;;;;;;;4.95;2.63;;;29.00;38.00;;;;;;5033421;28;20207;-64
2021/06/04 12:09:47;;;;;;;2.60;2.00;;;29.10;38.60;;;;;;5029071;28;20214;-65
2021/06/04 12:12:33;;;;;;;3.70;2.05;;;29.30;38.60;;;;;;5027167;28;20717;-66
2021/06/04 12:15:43;;;;;;;3.92;2.42;;;29.40;37.50;;;;;;5024676;28;20238;-66
2021/06/04 12:18:59;;;;;;;5.35;2.22;;;29.50;37.50;;;;;;4987847;28;20227;-66
2021/06/04 12:22:05;;;;;;;4.20;2.30;;;29.60;37.20;;;;;;5029627;28;20567;-65
2021/06/04 12:24:57;;;;;;;4.80;2.45;;;29.50;36.70;;;;;;5034550;28;20798;-64
2021/06/04 12:28:03;;;;;;;2.50;2.30;;;29.30;36.90;;;;;;5023667;28;20213;-68
